sensor_id;sensor_type;location;lat;lon;timestamp;pressure;altitude;pressure_sealevel;temperature;humidity
68301;BME280;55146;47.468;18.806;2023-02-18T00:01:00;100366.41;;;9.43;83.01
68301;BME280;55146;47.468;18.806;2023-02-18T00:03:27;100360.38;;;9.46;83.09
68301;BME280;55146;47.468;18.806;2023-02-18T00:05:53;100360.47;;;9.56;82.63
68301;BME280;55146;47.468;18.806;2023-02-18T00:08:20;100363.16;;;9.51;82.88
68301;BME280;55146;47.468;18.806;2023-02-18T00:10:45;100359.22;;;9.37;83.69
68301;BME280;55146;47.468;18.806;2023-02-18T00:13:10;100352.66;;;9.43;83.59
68301;BME280;55146;47.468;18.806;2023-02-18T00:15:37;100341.47;;;9.49;83.83
68301;BME280;55146;47.468;18.806;2023-02-18T00:18:03;100351.91;;;9.52;83.75
68301;BME280;55146;47.468;18.806;2023-02-18T00:20:30;100341.19;;;9.51;83.70
68301;BME280;55146;47.468;18.806;2023-02-18T00:22:58;100335.16;;;9.49;84.20
68301;BME280;55146;47.468;18.806;2023-02-18T00:25:23;100330.53;;;9.54;84.03
68301;BME280;55146;47.468;18.806;2023-02-18T00:27:49;100326.38;;;9.52;84.33
68301;BME280;55146;47.468;18.806;2023-02-18T00:30:14;100319.22;;;9.51;84.67
68301;BME280;55146;47.468;18.806;2023-02-18T00:32:40;100320.91;;;9.57;84.52
68301;BME280;55146;47.468;18.806;2023-02-18T00:35:05;100315.69;;;9.50;84.83
68301;BME280;55146;47.468;18.806;2023-02-18T00:37:31;100329.94;;;9.52;85.33
68301;BME280;55146;47.468;18.806;2023-02-18T00:39:56;100323.12;;;9.55;85.80
68301;BME280;55146;47.468;18.806;2023-02-18T00:42:21;100325.97;;;9.70;84.93
68301;BME280;55146;47.468;18.806;2023-02-18T00:44:47;100309.81;;;9.73;85.21
68301;BME280;55146;47.468;18.806;2023-02-18T00:47:12;100307.19;;;9.94;84.87
68301;BME280;55146;47.468;18.806;2023-02-18T00:49:38;100316.78;;;10.28;83.24
68301;BME280;55146;47.468;18.806;2023-02-18T00:52:04;100320.94;;;10.36;82.48
68301;BME280;55146;47.468;18.806;2023-02-18T00:54:29;100312.50;;;10.52;82.07
68301;BME280;55146;47.468;18.806;2023-02-18T00:56:55;100319.75;;;10.74;80.94
68301;BME280;55146;47.468;18.806;2023-02-18T00:59:20;100311.19;;;10.80;80.43
68301;BME280;55146;47.468;18.806;2023-02-18T01:01:46;100309.84;;;10.78;80.49
68301;BME280;55146;47.468;18.806;2023-02-18T01:04:11;100305.44;;;10.87;79.96
68301;BME280;55146;47.468;18.806;2023-02-18T01:06:37;100301.59;;;10.93;79.22
68301;BME280;55146;47.468;18.806;2023-02-18T01:09:04;100304.09;;;10.94;79.01
68301;BME280;55146;47.468;18.806;2023-02-18T01:11:29;100302.69;;;10.87;79.12
68301;BME280;55146;47.468;18.806;2023-02-18T01:13:55;100298.03;;;10.87;78.93
68301;BME280;55146;47.468;18.806;2023-02-18T01:16:20;100298.84;;;10.93;78.59
68301;BME280;55146;47.468;18.806;2023-02-18T01:18:46;100302.47;;;11.04;77.87
68301;BME280;55146;47.468;18.806;2023-02-18T01:21:11;100298.63;;;11.05;77.43
68301;BME280;55146;47.468;18.806;2023-02-18T01:23:38;100299.47;;;11.10;77.16
68301;BME280;55146;47.468;18.806;2023-02-18T01:26:03;100302.78;;;11.22;76.46
68301;BME280;55146;47.468;18.806;2023-02-18T01:28:29;100288.44;;;11.20;76.35
68301;BME280;55146;47.468;18.806;2023-02-18T01:30:54;100288.44;;;11.25;76.17
68301;BME280;55146;47.468;18.806;2023-02-18T01:33:20;100290.38;;;11.25;76.15
68301;BME280;55146;47.468;18.806;2023-02-18T01:35:46;100282.69;;;11.22;76.38
68301;BME280;55146;47.468;18.806;2023-02-18T01:38:11;100279.62;;;11.13;76.73
68301;BME280;55146;47.468;18.806;2023-02-18T01:40:45;100273.56;;;10.96;77.45
68301;BME280;55146;47.468;18.806;2023-02-18T01:43:15;100280.41;;;10.93;77.76
68301;BME280;55146;47.468;18.806;2023-02-18T01:45:56;100277.41;;;10.95;77.88
68301;BME280;55146;47.468;18.806;2023-02-18T01:50:57;100268.63;;;11.03;78.25
68301;BME280;55146;47.468;18.806;2023-02-18T01:53:32;100257.63;;;11.28;77.55
68301;BME280;55146;47.468;18.806;2023-02-18T01:56:02;100250.16;;;11.54;76.37
68301;BME280;55146;47.468;18.806;2023-02-18T01:58:29;100232.53;;;11.75;75.49
68301;BME280;55146;47.468;18.806;2023-02-18T02:00:55;100240.47;;;11.97;74.41
68301;BME280;55146;47.468;18.806;2023-02-18T02:03:20;100231.41;;;11.97;74.09
68301;BME280;55146;47.468;18.806;2023-02-18T02:05:45;100234.03;;;12.27;72.57
68301;BME280;55146;47.468;18.806;2023-02-18T02:08:11;100218.53;;;12.36;72.23
68301;BME280;55146;47.468;18.806;2023-02-18T02:10:58;100218.16;;;12.58;70.96
68301;BME280;55146;47.468;18.806;2023-02-18T02:19:28;100214.22;;;12.69;70.33
68301;BME280;55146;47.468;18.806;2023-02-18T02:22:22;100202.41;;;12.97;69.17
68301;BME280;55146;47.468;18.806;2023-02-18T02:33:24;100205.00;;;12.89;69.53
68301;BME280;55146;47.468;18.806;2023-02-18T02:36:12;100218.53;;;12.85;69.48
68301;BME280;55146;47.468;18.806;2023-02-18T02:38:53;100215.22;;;12.88;69.50
68301;BME280;55146;47.468;18.806;2023-02-18T02:46:31;100218.09;;;13.07;68.21
68301;BME280;55146;47.468;18.806;2023-02-18T02:49:12;100207.03;;;13.12;68.12
68301;BME280;55146;47.468;18.806;2023-02-18T02:51:49;100217.84;;;13.04;68.55
68301;BME280;55146;47.468;18.806;2023-02-18T02:54:23;100226.72;;;13.01;68.74
68301;BME280;55146;47.468;18.806;2023-02-18T02:56:49;100225.62;;;13.02;68.64
68301;BME280;55146;47.468;18.806;2023-02-18T02:59:23;100228.88;;;13.04;68.46
68301;BME280;55146;47.468;18.806;2023-02-18T03:12:47;100250.03;;;12.79;70.04
68301;BME280;55146;47.468;18.806;2023-02-18T03:18:28;100258.34;;;12.74;70.65
68301;BME280;55146;47.468;18.806;2023-02-18T03:23:42;100265.22;;;12.82;70.49
68301;BME280;55146;47.468;18.806;2023-02-18T03:26:11;100265.56;;;12.70;71.26
68301;BME280;55146;47.468;18.806;2023-02-18T03:28:39;100268.00;;;12.77;71.16
68301;BME280;55146;47.468;18.806;2023-02-18T03:31:08;100264.16;;;12.73;71.07
68301;BME280;55146;47.468;18.806;2023-02-18T03:33:48;100275.19;;;12.73;71.25
68301;BME280;55146;47.468;18.806;2023-02-18T03:36:18;100258.59;;;12.78;70.95
68301;BME280;55146;47.468;18.806;2023-02-18T03:38:55;100269.41;;;12.74;71.26
68301;BME280;55146;47.468;18.806;2023-02-18T03:41:23;100269.66;;;12.73;71.33
68301;BME280;55146;47.468;18.806;2023-02-18T03:43:50;100266.94;;;12.68;71.72
68301;BME280;55146;47.468;18.806;2023-02-18T03:46:16;100287.63;;;12.75;71.36
68301;BME280;55146;47.468;18.806;2023-02-18T03:48:42;100269.88;;;12.86;70.81
68301;BME280;55146;47.468;18.806;2023-02-18T03:51:07;100272.09;;;12.84;70.94
68301;BME280;55146;47.468;18.806;2023-02-18T03:53:32;100283.44;;;12.78;71.27
68301;BME280;55146;47.468;18.806;2023-02-18T03:55:58;100278.03;;;12.63;71.86
68301;BME280;55146;47.468;18.806;2023-02-18T03:58:23;100286.03;;;12.59;71.76
68301;BME280;55146;47.468;18.806;2023-02-18T04:00:48;100282.72;;;12.62;71.61
68301;BME280;55146;47.468;18.806;2023-02-18T04:03:14;100276.41;;;12.51;72.00
68301;BME280;55146;47.468;18.806;2023-02-18T04:05:39;100281.03;;;12.66;71.22
68301;BME280;55146;47.468;18.806;2023-02-18T04:08:04;100275.28;;;12.57;71.54
68301;BME280;55146;47.468;18.806;2023-02-18T04:10:30;100282.78;;;12.42;72.05
68301;BME280;55146;47.468;18.806;2023-02-18T04:12:55;100277.63;;;12.25;72.76
68301;BME280;55146;47.468;18.806;2023-02-18T04:15:21;100289.50;;;12.21;72.96
68301;BME280;55146;47.468;18.806;2023-02-18T04:17:46;100299.41;;;12.16;73.03
68301;BME280;55146;47.468;18.806;2023-02-18T04:20:11;100300.53;;;12.21;72.71
68301;BME280;55146;47.468;18.806;2023-02-18T04:22:37;100298.06;;;12.14;72.99
68301;BME280;55146;47.468;18.806;2023-02-18T04:25:02;100297.25;;;11.98;73.52
68301;BME280;55146;47.468;18.806;2023-02-18T04:27:28;100298.06;;;12.04;73.22
68301;BME280;55146;47.468;18.806;2023-02-18T04:29:53;100295.88;;;12.01;73.27
68301;BME280;55146;47.468;18.806;2023-02-18T04:32:18;100303.62;;;11.94;73.52
68301;BME280;55146;47.468;18.806;2023-02-18T04:34:44;100298.13;;;11.89;73.95
68301;BME280;55146;47.468;18.806;2023-02-18T04:37:09;100300.59;;;11.70;74.62
68301;BME280;55146;47.468;18.806;2023-02-18T04:39:35;100300.59;;;11.70;74.79
68301;BME280;55146;47.468;18.806;2023-02-18T04:42:00;100298.13;;;11.79;74.48
68301;BME280;55146;47.468;18.806;2023-02-18T04:44:26;100299.50;;;11.81;74.52
68301;BME280;55146;47.468;18.806;2023-02-18T04:46:51;100298.94;;;11.69;74.98
68301;BME280;55146;47.468;18.806;2023-02-18T04:49:16;100299.75;;;11.64;75.26
68301;BME280;55146;47.468;18.806;2023-02-18T04:51:42;100298.94;;;11.69;75.09
68301;BME280;55146;47.468;18.806;2023-02-18T04:54:07;100312.16;;;11.62;75.37
68301;BME280;55146;47.468;18.806;2023-02-18T04:56:33;100306.94;;;11.65;75.23
68301;BME280;55146;47.468;18.806;2023-02-18T04:58:58;100314.69;;;11.79;74.69
68301;BME280;55146;47.468;18.806;2023-02-18T05:01:24;100309.94;;;11.69;75.08
68301;BME280;55146;47.468;18.806;2023-02-18T05:03:49;100311.06;;;11.58;75.70
68301;BME280;55146;47.468;18.806;2023-02-18T05:06:15;100308.03;;;11.59;75.47
68301;BME280;55146;47.468;18.806;2023-02-18T05:08:40;100314.09;;;11.56;75.75
68301;BME280;55146;47.468;18.806;2023-02-18T05:11:06;100315.47;;;11.59;75.64
68301;BME280;55146;47.468;18.806;2023-02-18T05:13:32;100327.03;;;11.51;76.00
68301;BME280;55146;47.468;18.806;2023-02-18T05:15:58;100336.97;;;11.47;76.29
68301;BME280;55146;47.468;18.806;2023-02-18T05:18:24;100328.41;;;11.43;76.58
68301;BME280;55146;47.468;18.806;2023-02-18T05:20:49;100335.31;;;11.46;76.71
68301;BME280;55146;47.468;18.806;2023-02-18T05:23:15;100343.00;;;11.39;77.17
68301;BME280;55146;47.468;18.806;2023-02-18T05:25:40;100345.50;;;11.35;77.61
68301;BME280;55146;47.468;18.806;2023-02-18T05:28:05;100339.69;;;11.31;77.77
68301;BME280;55146;47.468;18.806;2023-02-18T05:30:31;100334.16;;;11.16;78.75
68301;BME280;55146;47.468;18.806;2023-02-18T05:32:56;100346.84;;;11.27;78.53
68301;BME280;55146;47.468;18.806;2023-02-18T05:35:21;100343.56;;;11.35;78.15
68301;BME280;55146;47.468;18.806;2023-02-18T05:37:47;100349.59;;;11.32;78.35
68301;BME280;55146;47.468;18.806;2023-02-18T05:40:12;100354.28;;;11.37;78.37
68301;BME280;55146;47.468;18.806;2023-02-18T05:42:37;100365.03;;;11.28;79.23
68301;BME280;55146;47.468;18.806;2023-02-18T05:45:03;100360.56;;;11.17;80.04
68301;BME280;55146;47.468;18.806;2023-02-18T05:47:28;100371.06;;;11.30;80.21
68301;BME280;55146;47.468;18.806;2023-02-18T05:49:54;100380.44;;;11.29;82.19
68301;BME280;55146;47.468;18.806;2023-02-18T05:52:20;100376.88;;;11.29;82.64
68301;BME280;55146;47.468;18.806;2023-02-18T05:54:46;100391.44;;;11.19;82.94
68301;BME280;55146;47.468;18.806;2023-02-18T05:57:13;100399.69;;;11.14;83.38
68301;BME280;55146;47.468;18.806;2023-02-18T05:59:39;100407.69;;;11.16;83.13
68301;BME280;55146;47.468;18.806;2023-02-18T06:02:04;100412.09;;;11.22;83.24
68301;BME280;55146;47.468;18.806;2023-02-18T06:04:30;100404.41;;;11.29;83.30
68301;BME280;55146;47.468;18.806;2023-02-18T06:06:55;100403.84;;;11.22;83.90
68301;BME280;55146;47.468;18.806;2023-02-18T06:09:21;100427.19;;;11.09;85.33
68301;BME280;55146;47.468;18.806;2023-02-18T06:11:46;100394.19;;;11.19;85.71
68301;BME280;55146;47.468;18.806;2023-02-18T06:14:12;100408.19;;;11.08;88.07
68301;BME280;55146;47.468;18.806;2023-02-18T06:16:37;100400.34;;;10.74;92.27
68301;BME280;55146;47.468;18.806;2023-02-18T06:19:03;100405.00;;;10.69;92.91
68301;BME280;55146;47.468;18.806;2023-02-18T06:21:28;100417.53;;;10.49;93.39
68301;BME280;55146;47.468;18.806;2023-02-18T06:23:54;100418.12;;;10.57;92.50
68301;BME280;55146;47.468;18.806;2023-02-18T06:26:19;100426.03;;;10.43;93.14
68301;BME280;55146;47.468;18.806;2023-02-18T06:28:44;100424.69;;;10.50;92.64
68301;BME280;55146;47.468;18.806;2023-02-18T06:31:10;100433.22;;;10.49;92.59
68301;BME280;55146;47.468;18.806;2023-02-18T06:33:35;100440.09;;;10.51;91.02
68301;BME280;55146;47.468;18.806;2023-02-18T06:36:04;100436.00;;;10.49;91.11
68301;BME280;55146;47.468;18.806;2023-02-18T06:38:34;100429.91;;;10.47;90.45
68301;BME280;55146;47.468;18.806;2023-02-18T06:41:00;100430.78;;;10.52;89.50
68301;BME280;55146;47.468;18.806;2023-02-18T06:43:26;100433.59;;;10.68;88.30
68301;BME280;55146;47.468;18.806;2023-02-18T06:45:51;100433.59;;;10.68;87.70
68301;BME280;55146;47.468;18.806;2023-02-18T06:48:17;100440.22;;;10.67;87.71
68301;BME280;55146;47.468;18.806;2023-02-18T06:50:43;100431.34;;;10.54;88.84
68301;BME280;55146;47.468;18.806;2023-02-18T06:53:09;100437.69;;;10.60;89.10
68301;BME280;55146;47.468;18.806;2023-02-18T06:55:35;100436.06;;;10.64;90.15
68301;BME280;55146;47.468;18.806;2023-02-18T06:58:01;100441.56;;;10.64;91.15
68301;BME280;55146;47.468;18.806;2023-02-18T07:00:26;100443.75;;;10.62;91.33
68301;BME280;55146;47.468;18.806;2023-02-18T07:02:51;100448.00;;;10.80;90.53
68301;BME280;55146;47.468;18.806;2023-02-18T07:05:17;100439.69;;;10.75;90.84
68301;BME280;55146;47.468;18.806;2023-02-18T07:07:42;100435.88;;;10.81;90.32
68301;BME280;55146;47.468;18.806;2023-02-18T07:10:08;100436.09;;;10.74;90.38
68301;BME280;55146;47.468;18.806;2023-02-18T07:12:33;100431.66;;;10.68;91.04
68301;BME280;55146;47.468;18.806;2023-02-18T07:14:59;100444.13;;;10.81;90.02
68301;BME280;55146;47.468;18.806;2023-02-18T07:17:24;100445.03;;;10.91;89.08
68301;BME280;55146;47.468;18.806;2023-02-18T07:19:50;100441.13;;;10.87;88.66
68301;BME280;55146;47.468;18.806;2023-02-18T07:22:15;100445.03;;;10.91;88.34
68301;BME280;55146;47.468;18.806;2023-02-18T07:24:41;100449.16;;;10.99;87.81
68301;BME280;55146;47.468;18.806;2023-02-18T07:27:06;100443.13;;;10.97;88.06
68301;BME280;55146;47.468;18.806;2023-02-18T07:29:31;100435.38;;;10.94;88.54
68301;BME280;55146;47.468;18.806;2023-02-18T07:31:57;100430.47;;;11.01;88.17
68301;BME280;55146;47.468;18.806;2023-02-18T07:34:22;100429.94;;;11.04;88.22
68301;BME280;55146;47.468;18.806;2023-02-18T07:36:47;100429.87;;;10.94;88.85
68301;BME280;55146;47.468;18.806;2023-02-18T07:39:13;100420.56;;;11.05;88.52
68301;BME280;55146;47.468;18.806;2023-02-18T07:41:38;100415.38;;;11.14;87.55
68301;BME280;55146;47.468;18.806;2023-02-18T07:44:04;100416.22;;;11.19;86.88
68301;BME280;55146;47.468;18.806;2023-02-18T07:46:29;100416.22;;;11.19;86.21
68301;BME280;55146;47.468;18.806;2023-02-18T07:48:56;100400.78;;;11.18;86.40
68301;BME280;55146;47.468;18.806;2023-02-18T07:51:21;100406.84;;;11.20;86.14
68301;BME280;55146;47.468;18.806;2023-02-18T07:53:47;100409.94;;;11.34;85.44
68301;BME280;55146;47.468;18.806;2023-02-18T07:56:12;100418.72;;;11.36;84.72
68301;BME280;55146;47.468;18.806;2023-02-18T07:58:38;100420.37;;;11.27;85.20
68301;BME280;55146;47.468;18.806;2023-02-18T08:01:09;100422.03;;;11.33;84.77
68301;BME280;55146;47.468;18.806;2023-02-18T08:03:35;100425.62;;;11.28;83.74
68301;BME280;55146;47.468;18.806;2023-02-18T08:06:02;100422.88;;;11.39;83.45
68301;BME280;55146;47.468;18.806;2023-02-18T08:08:30;100424.81;;;11.48;81.79
68301;BME280;55146;47.468;18.806;2023-02-18T08:10:58;100432.00;;;11.54;81.21
68301;BME280;55146;47.468;18.806;2023-02-18T08:13:24;100438.91;;;11.52;80.61
68301;BME280;55146;47.468;18.806;2023-02-18T08:15:49;100434.78;;;11.59;80.18
68301;BME280;55146;47.468;18.806;2023-02-18T08:18:20;100440.87;;;11.66;79.80
68301;BME280;55146;47.468;18.806;2023-02-18T08:20:47;100440.81;;;11.61;80.00
68301;BME280;55146;47.468;18.806;2023-02-18T08:23:14;100447.19;;;11.67;80.36
68301;BME280;55146;47.468;18.806;2023-02-18T08:25:53;100446.38;;;11.71;80.13
68301;BME280;55146;47.468;18.806;2023-02-18T08:28:21;100442.25;;;11.79;79.74
68301;BME280;55146;47.468;18.806;2023-02-18T08:30:48;100443.09;;;11.74;80.79
68301;BME280;55146;47.468;18.806;2023-02-18T08:33:14;100446.72;;;11.90;81.06
68301;BME280;55146;47.468;18.806;2023-02-18T08:35:40;100445.59;;;11.86;81.93
68301;BME280;55146;47.468;18.806;2023-02-18T08:38:06;100438.16;;;11.97;81.78
68301;BME280;55146;47.468;18.806;2023-02-18T08:40:31;100441.47;;;11.94;82.12
68301;BME280;55146;47.468;18.806;2023-02-18T08:42:57;100441.19;;;12.00;81.74
68301;BME280;55146;47.468;18.806;2023-02-18T08:45:22;100442.84;;;12.01;82.28
68301;BME280;55146;47.468;18.806;2023-02-18T08:47:48;100445.31;;;12.18;81.64
68301;BME280;55146;47.468;18.806;2023-02-18T08:50:13;100440.34;;;12.10;81.88
68301;BME280;55146;47.468;18.806;2023-02-18T08:52:38;100438.97;;;12.23;80.83
68301;BME280;55146;47.468;18.806;2023-02-18T08:55:05;100425.19;;;12.23;80.70
68301;BME280;55146;47.468;18.806;2023-02-18T08:57:30;100436.22;;;12.23;80.22
68301;BME280;55146;47.468;18.806;2023-02-18T08:59:55;100436.78;;;12.14;80.12
68301;BME280;55146;47.468;18.806;2023-02-18T09:02:21;100442.03;;;12.21;79.81
68301;BME280;55146;47.468;18.806;2023-02-18T09:04:46;100434.84;;;12.15;80.19
68301;BME280;55146;47.468;18.806;2023-02-18T09:07:12;100435.38;;;12.17;80.00
68301;BME280;55146;47.468;18.806;2023-02-18T09:09:37;100424.63;;;12.10;80.24
68301;BME280;55146;47.468;18.806;2023-02-18T09:12:03;100428.78;;;12.13;79.34
68301;BME280;55146;47.468;18.806;2023-02-18T09:14:28;100430.69;;;12.33;78.41
68301;BME280;55146;47.468;18.806;2023-02-18T09:16:56;100426.25;;;12.52;77.76
68301;BME280;55146;47.468;18.806;2023-02-18T09:19:22;100416.28;;;12.71;77.84
68301;BME280;55146;47.468;18.806;2023-02-18T09:21:48;100426.38;;;13.01;77.62
68301;BME280;55146;47.468;18.806;2023-02-18T09:24:13;100424.31;;;13.37;76.86
68301;BME280;55146;47.468;18.806;2023-02-18T09:26:38;100423.31;;;13.62;75.99
68301;BME280;55146;47.468;18.806;2023-02-18T09:29:05;100412.47;;;13.75;74.19
68301;BME280;55146;47.468;18.806;2023-02-18T09:31:30;100415.19;;;13.81;74.19
68301;BME280;55146;47.468;18.806;2023-02-18T09:34:01;100412.03;;;13.92;73.65
68301;BME280;55146;47.468;18.806;2023-02-18T09:36:27;100408.91;;;14.04;73.50
68301;BME280;55146;47.468;18.806;2023-02-18T09:38:52;100420.25;;;14.02;72.87
68301;BME280;55146;47.468;18.806;2023-02-18T09:43:56;100423.16;;;13.87;73.33
68301;BME280;55146;47.468;18.806;2023-02-18T09:48:51;100412.00;;;13.97;72.95
68301;BME280;55146;47.468;18.806;2023-02-18T09:51:18;100419.59;;;14.49;71.39
68301;BME280;55146;47.468;18.806;2023-02-18T09:53:44;100421.28;;;14.45;71.98
68301;BME280;55146;47.468;18.806;2023-02-18T09:56:21;100423.75;;;14.47;71.46
68301;BME280;55146;47.468;18.806;2023-02-18T09:58:51;100421.31;;;14.40;71.02
68301;BME280;55146;47.468;18.806;2023-02-18T10:01:24;100422.75;;;14.33;71.90
68301;BME280;55146;47.468;18.806;2023-02-18T10:03:51;100417.75;;;14.35;71.75
68301;BME280;55146;47.468;18.806;2023-02-18T10:06:30;100416.28;;;14.13;72.75
68301;BME280;55146;47.468;18.806;2023-02-18T10:08:59;100409.50;;;14.82;71.92
68301;BME280;55146;47.468;18.806;2023-02-18T10:11:39;100395.56;;;15.35;70.89
68301;BME280;55146;47.468;18.806;2023-02-18T10:14:09;100395.97;;;15.66;68.65
68301;BME280;55146;47.468;18.806;2023-02-18T10:16:35;100388.84;;;15.60;67.85
68301;BME280;55146;47.468;18.806;2023-02-18T10:19:07;100387.78;;;15.56;69.02
68301;BME280;55146;47.468;18.806;2023-02-18T10:21:36;100390.78;;;15.59;66.49
68301;BME280;55146;47.468;18.806;2023-02-18T10:26:50;100394.25;;;15.09;67.54
68301;BME280;55146;47.468;18.806;2023-02-18T10:29:17;100390.41;;;15.05;68.12
68301;BME280;55146;47.468;18.806;2023-02-18T10:31:50;100382.94;;;14.81;69.15
68301;BME280;55146;47.468;18.806;2023-02-18T10:36:45;100391.25;;;14.81;70.80
68301;BME280;55146;47.468;18.806;2023-02-18T10:39:23;100371.81;;;14.63;71.15
68301;BME280;55146;47.468;18.806;2023-02-18T10:45:47;100368.09;;;15.15;70.85
68301;BME280;55146;47.468;18.806;2023-02-18T10:48:41;100362.50;;;16.08;67.43
68301;BME280;55146;47.468;18.806;2023-02-18T10:51:20;100364.62;;;16.44;66.18
68301;BME280;55146;47.468;18.806;2023-02-18T10:53:47;100355.53;;;16.84;63.95
68301;BME280;55146;47.468;18.806;2023-02-18T10:56:37;100357.97;;;16.58;62.75
68301;BME280;55146;47.468;18.806;2023-02-18T11:01:36;100350.59;;;15.75;65.03
68301;BME280;55146;47.468;18.806;2023-02-18T11:04:15;100342.50;;;15.42;66.18
68301;BME280;55146;47.468;18.806;2023-02-18T11:06:44;100347.75;;;15.06;67.65
68301;BME280;55146;47.468;18.806;2023-02-18T11:09:28;100346.25;;;14.71;69.06
68301;BME280;55146;47.468;18.806;2023-02-18T11:12:45;100339.41;;;14.39;70.22
68301;BME280;55146;47.468;18.806;2023-02-18T11:17:40;100332.81;;;15.02;69.36
68301;BME280;55146;47.468;18.806;2023-02-18T11:25:38;100320.00;;;16.27;63.69
68301;BME280;55146;47.468;18.806;2023-02-18T11:30:53;100314.94;;;16.15;62.41
68301;BME280;55146;47.468;18.806;2023-02-18T11:33:25;100307.59;;;16.05;63.57
68301;BME280;55146;47.468;18.806;2023-02-18T11:35:57;100300.56;;;16.40;62.94
68301;BME280;55146;47.468;18.806;2023-02-18T11:38:28;100298.44;;;16.65;62.56
68301;BME280;55146;47.468;18.806;2023-02-18T11:41:05;100296.66;;;16.69;61.71
68301;BME280;55146;47.468;18.806;2023-02-18T11:43:33;100282.75;;;16.96;61.09
68301;BME280;55146;47.468;18.806;2023-02-18T11:46:16;100284.28;;;17.02;60.50
68301;BME280;55146;47.468;18.806;2023-02-18T11:48:42;100279.97;;;16.96;60.65
68301;BME280;55146;47.468;18.806;2023-02-18T11:51:22;100281.81;;;17.01;60.71
68301;BME280;55146;47.468;18.806;2023-02-18T11:54:20;100276.84;;;16.97;59.39
68301;BME280;55146;47.468;18.806;2023-02-18T11:57:09;100260.19;;;16.97;59.01
68301;BME280;55146;47.468;18.806;2023-02-18T11:59:37;100256.16;;;17.04;58.95
68301;BME280;55146;47.468;18.806;2023-02-18T12:04:47;100250.69;;;17.12;58.24
68301;BME280;55146;47.468;18.806;2023-02-18T12:10:03;100240.97;;;17.46;55.58
68301;BME280;55146;47.468;18.806;2023-02-18T12:12:31;100223.53;;;17.09;58.12
68301;BME280;55146;47.468;18.806;2023-02-18T12:15:00;100225.84;;;16.80;57.66
68301;BME280;55146;47.468;18.806;2023-02-18T12:17:54;100227.31;;;16.77;58.28
68301;BME280;55146;47.468;18.806;2023-02-18T12:20:43;100209.66;;;16.95;58.26
68301;BME280;55146;47.468;18.806;2023-02-18T12:34:28;100192.41;;;16.22;60.66
68301;BME280;55146;47.468;18.806;2023-02-18T12:48:08;100186.72;;;17.57;57.54
68301;BME280;55146;47.468;18.806;2023-02-18T12:54:18;100186.81;;;17.21;57.28
68301;BME280;55146;47.468;18.806;2023-02-18T12:56:56;100172.75;;;17.04;57.39
68301;BME280;55146;47.468;18.806;2023-02-18T13:08:09;100156.47;;;17.33;56.29
68301;BME280;55146;47.468;18.806;2023-02-18T13:13:24;100146.66;;;17.35;57.15
68301;BME280;55146;47.468;18.806;2023-02-18T13:15:58;100148.00;;;17.38;56.40
68301;BME280;55146;47.468;18.806;2023-02-18T13:18:31;100142.13;;;17.17;57.00
68301;BME280;55146;47.468;18.806;2023-02-18T13:21:15;100141.00;;;17.18;56.42
68301;BME280;55146;47.468;18.806;2023-02-18T13:24:01;100142.31;;;16.98;57.47
68301;BME280;55146;47.468;18.806;2023-02-18T13:26:29;100137.53;;;16.90;57.65
68301;BME280;55146;47.468;18.806;2023-02-18T13:34:31;100130.38;;;16.76;58.86
68301;BME280;55146;47.468;18.806;2023-02-18T13:37:19;100114.97;;;16.20;58.75
68301;BME280;55146;47.468;18.806;2023-02-18T13:39:49;100137.72;;;16.08;60.07
68301;BME280;55146;47.468;18.806;2023-02-18T13:47:44;100114.72;;;16.44;59.54
68301;BME280;55146;47.468;18.806;2023-02-18T13:52:56;100116.62;;;16.57;59.73
68301;BME280;55146;47.468;18.806;2023-02-18T13:55:32;100103.56;;;16.71;59.39
68301;BME280;55146;47.468;18.806;2023-02-18T13:57:59;100099.38;;;16.60;59.67
68301;BME280;55146;47.468;18.806;2023-02-18T14:00:34;100089.50;;;16.54;59.71
68301;BME280;55146;47.468;18.806;2023-02-18T14:03:19;100089.84;;;16.39;59.54
68301;BME280;55146;47.468;18.806;2023-02-18T14:05:45;100081.63;;;16.34;59.90
68301;BME280;55146;47.468;18.806;2023-02-18T14:10:38;100071.63;;;16.10;61.42
68301;BME280;55146;47.468;18.806;2023-02-18T14:16:11;100061.31;;;16.11;60.34
68301;BME280;55146;47.468;18.806;2023-02-18T14:28:52;100043.53;;;16.12;61.34
68301;BME280;55146;47.468;18.806;2023-02-18T14:39:40;100031.53;;;16.16;61.96
68301;BME280;55146;47.468;18.806;2023-02-18T14:49:09;100024.25;;;15.93;62.03
68301;BME280;55146;47.468;18.806;2023-02-18T14:51:30;100020.66;;;15.93;62.50
68301;BME280;55146;47.468;18.806;2023-02-18T14:54:02;100024.34;;;16.02;62.42
68301;BME280;55146;47.468;18.806;2023-02-18T14:56:28;100022.59;;;16.06;59.87
68301;BME280;55146;47.468;18.806;2023-02-18T14:58:59;100013.72;;;15.82;59.45
68301;BME280;55146;47.468;18.806;2023-02-18T15:01:32;100011.47;;;15.70;59.16
68301;BME280;55146;47.468;18.806;2023-02-18T15:03:59;100014.75;;;15.45;59.44
68301;BME280;55146;47.468;18.806;2023-02-18T15:06:33;100011.34;;;15.20;60.19
68301;BME280;55146;47.468;18.806;2023-02-18T15:09:01;100021.91;;;14.91;60.57
68301;BME280;55146;47.468;18.806;2023-02-18T15:11:35;100011.16;;;14.71;60.11
68301;BME280;55146;47.468;18.806;2023-02-18T15:14:08;100010.00;;;14.58;60.53
68301;BME280;55146;47.468;18.806;2023-02-18T15:16:35;100010.28;;;14.43;60.90
68301;BME280;55146;47.468;18.806;2023-02-18T15:19:02;100007.63;;;14.51;60.79
68301;BME280;55146;47.468;18.806;2023-02-18T15:21:32;100002.47;;;14.45;60.57